Time;durP1;ratioP1;P1;durP2;ratioP2;P2;SDS_P1;SDS_P2;PMS_P1;PMS_P2;Temp;Humidity;BMP_temperature;BMP_pressure;BME280_temperature;BME280_humidity;BME280_pressure;Samples;Min_cycle;Max_cycle;Signal;HPM_P1;HPM_P2
2021/07/26 00:01:15;;;;;;;4.97;2.53;;;;;;;;;;5055461;28;20456;-77
2021/07/26 00:03:41;;;;;;;2.77;2.43;;;;;;;;;;5055084;28;20413;-76
2021/07/26 00:06:07;;;;;;;2.77;2.37;;;;;;;;;;5055330;28;20411;-76
2021/07/26 00:08:33;;;;;;;2.57;2.00;;;;;;;;;;5055014;28;20411;-77
2021/07/26 00:11:09;;;;;;;2.63;2.20;;;;;;;;;;5055236;28;20741;-76
2021/07/26 00:13:38;;;;;;;3.00;2.17;;;;;;;;;;5054840;28;20416;-78
2021/07/26 00:16:05;;;;;;;4.00;2.20;;;;;;;;;;5080241;23;20467;-78
2021/07/26 00:18:31;;;;;;;4.33;2.57;;;;;;;;;;5035233;28;20404;-78
2021/07/26 00:20:58;;;;;;;3.20;2.50;;;;;;;;;;5035367;28;20460;-78
2021/07/26 00:23:24;;;;;;;3.20;2.33;;;;;;;;;;5035045;28;20937;-78
2021/07/26 00:25:50;;;;;;;2.40;2.20;;;;;;;;;;5035065;28;20532;-78
2021/07/26 00:28:16;;;;;;;2.57;1.90;;;;;;;;;;5035218;28;20445;-78
2021/07/26 00:30:42;;;;;;;6.43;2.57;;;;;;;;;;5034922;28;20798;-78
2021/07/26 00:33:35;;;;;;;3.03;2.37;;;;;;;;;;5033959;28;20488;-78
2021/07/26 00:36:01;;;;;;;4.53;2.10;;;;;;;;;;5035135;28;20421;-78
2021/07/26 00:38:27;;;;;;;2.83;2.20;;;;;;;;;;5034955;28;20429;-78
2021/07/26 00:40:53;;;;;;;4.13;2.20;;;;;;;;;;5033713;28;20485;-79
2021/07/26 00:43:19;;;;;;;2.97;2.10;;;;;;;;;;5034713;28;20980;-78
2021/07/26 00:45:47;;;;;;;4.40;2.60;;;;;;;;;;5034682;28;20527;-78
2021/07/26 00:48:13;;;;;;;2.17;2.00;;;;;;;;;;5034746;28;20883;-78
2021/07/26 00:50:42;;;;;;;3.70;2.33;;;;;;;;;;5033414;28;20496;-78
2021/07/26 00:53:08;;;;;;;5.03;2.13;;;;;;;;;;5034299;28;20779;-78
2021/07/26 00:55:34;;;;;;;4.80;2.70;;;;;;;;;;5034549;28;20447;-78
2021/07/26 00:58:00;;;;;;;4.00;2.27;;;;;;;;;;5034537;28;20387;-78
2021/07/26 01:00:26;;;;;;;7.73;3.17;;;;;;;;;;5033225;28;20951;-78
2021/07/26 01:02:52;;;;;;;5.00;2.30;;;;;;;;;;5033966;28;20390;-79
2021/07/26 01:05:18;;;;;;;2.33;2.07;;;;;;;;;;5033085;28;20410;-78
2021/07/26 01:07:44;;;;;;;2.40;2.20;;;;;;;;;;5034276;28;20880;-78
2021/07/26 01:10:10;;;;;;;3.40;2.40;;;;;;;;;;5032938;28;20424;-78
2021/07/26 01:12:36;;;;;;;3.67;2.40;;;;;;;;;;5016822;28;20416;-78
2021/07/26 01:15:02;;;;;;;2.80;2.47;;;;;;;;;;5033650;28;20439;-78
2021/07/26 01:17:32;;;;;;;3.87;2.23;;;;;;;;;;5032941;28;20441;-77
2021/07/26 01:20:01;;;;;;;3.27;2.20;;;;;;;;;;5033925;28;20491;-78
2021/07/26 01:22:26;;;;;;;3.73;2.20;;;;;;;;;;5034158;28;20436;-78
2021/07/26 01:24:52;;;;;;;4.00;2.40;;;;;;;;;;5032271;28;20436;-78
2021/07/26 01:27:18;;;;;;;2.90;2.43;;;;;;;;;;5033893;28;20409;-78
2021/07/26 01:29:44;;;;;;;2.90;2.30;;;;;;;;;;5033898;28;20419;-78
2021/07/26 01:32:10;;;;;;;2.80;2.20;;;;;;;;;;5033872;28;20967;-78
2021/07/26 01:34:36;;;;;;;2.70;2.50;;;;;;;;;;5033835;28;20448;-78
2021/07/26 01:37:03;;;;;;;2.57;2.37;;;;;;;;;;5032809;28;20436;-78
2021/07/26 01:39:29;;;;;;;4.20;2.70;;;;;;;;;;5033825;28;20445;-78
2021/07/26 01:41:55;;;;;;;3.47;2.43;;;;;;;;;;5033787;28;20555;-78
2021/07/26 01:44:21;;;;;;;3.33;2.53;;;;;;;;;;5032039;28;20451;-78
2021/07/26 01:46:57;;;;;;;7.93;2.33;;;;;;;;;;5033631;28;20405;-78
2021/07/26 01:49:42;;;;;;;4.27;2.57;;;;;;;;;;5033565;28;20420;-79
2021/07/26 01:52:09;;;;;;;3.87;2.43;;;;;;;;;;5033617;28;20383;-78
2021/07/26 01:54:35;;;;;;;3.23;2.50;;;;;;;;;;5033027;28;20499;-78
2021/07/26 01:57:01;;;;;;;4.27;2.50;;;;;;;;;;5032356;28;20395;-80
2021/07/26 01:59:27;;;;;;;3.17;2.33;;;;;;;;;;5033418;28;20466;-78
2021/07/26 02:01:53;;;;;;;3.60;2.57;;;;;;;;;;5033407;28;20531;-78
2021/07/26 02:04:19;;;;;;;2.80;2.50;;;;;;;;;;5031704;28;20842;-78
2021/07/26 02:06:45;;;;;;;2.80;2.60;;;;;;;;;;5033241;28;20509;-78
2021/07/26 02:09:11;;;;;;;4.23;2.63;;;;;;;;;;5033305;28;20491;-78
2021/07/26 02:11:43;;;;;;;3.37;2.90;;;;;;;;;;5031879;28;20424;-78
2021/07/26 02:14:09;;;;;;;4.00;2.37;;;;;;;;;;5032837;28;20900;-78
2021/07/26 02:16:38;;;;;;;3.00;2.53;;;;;;;;;;5033269;28;20383;-78
2021/07/26 02:19:07;;;;;;;2.67;2.47;;;;;;;;;;5033179;28;20383;-78
2021/07/26 02:21:34;;;;;;;3.30;2.13;;;;;;;;;;5032931;28;20456;-79
2021/07/26 02:24:00;;;;;;;3.03;2.73;;;;;;;;;;5031506;28;20447;-78
2021/07/26 02:26:26;;;;;;;3.30;2.63;;;;;;;;;;5031948;28;20749;-77
2021/07/26 02:28:53;;;;;;;4.30;2.90;;;;;;;;;;5033324;28;20496;-78
2021/07/26 02:31:19;;;;;;;2.40;2.20;;;;;;;;;;5033187;28;20463;-78
2021/07/26 02:33:45;;;;;;;3.00;2.77;;;;;;;;;;5032643;28;20402;-78
2021/07/26 02:36:11;;;;;;;3.17;2.10;;;;;;;;;;5031860;28;20907;-78
2021/07/26 02:38:37;;;;;;;2.73;2.10;;;;;;;;;;5033025;28;20391;-78
2021/07/26 02:41:13;;;;;;;2.33;2.13;;;;;;;;;;5032899;28;20841;-79
2021/07/26 02:43:39;;;;;;;2.63;2.30;;;;;;;;;;5032602;28;20405;-79
2021/07/26 02:46:06;;;;;;;2.97;2.37;;;;;;;;;;5032889;28;20425;-78
2021/07/26 02:48:36;;;;;;;5.00;2.70;;;;;;;;;;5033339;28;20402;-78
2021/07/26 02:51:02;;;;;;;4.00;2.67;;;;;;;;;;5033224;28;20950;-78
2021/07/26 02:53:28;;;;;;;2.53;2.33;;;;;;;;;;5032837;28;20383;-78
2021/07/26 02:55:57;;;;;;;3.20;2.33;;;;;;;;;;5034005;28;20414;-78
2021/07/26 02:58:23;;;;;;;2.50;2.30;;;;;;;;;;5036904;28;20383;-78
2021/07/26 03:00:50;;;;;;;3.57;2.53;;;;;;;;;;5036712;28;20525;-78
2021/07/26 03:03:16;;;;;;;3.83;2.07;;;;;;;;;;5036390;28;20769;-78
2021/07/26 03:05:42;;;;;;;2.40;2.20;;;;;;;;;;5035191;28;20527;-78
2021/07/26 03:08:09;;;;;;;3.87;2.23;;;;;;;;;;5036544;28;20445;-78
2021/07/26 03:10:35;;;;;;;7.43;2.77;;;;;;;;;;5036493;28;20379;-78
2021/07/26 03:13:01;;;;;;;3.60;2.53;;;;;;;;;;5035075;28;20739;-78
2021/07/26 03:15:27;;;;;;;2.30;2.10;;;;;;;;;;5035175;28;20476;-78
2021/07/26 03:17:53;;;;;;;2.30;2.10;;;;;;;;;;5036361;28;20392;-78
2021/07/26 03:20:19;;;;;;;4.07;2.43;;;;;;;;;;5036220;28;20446;-78
2021/07/26 03:23:01;;;;;;;3.17;2.40;;;;;;;;;;5035991;28;20409;-79
2021/07/26 03:25:27;;;;;;;3.13;2.50;;;;;;;;;;5036188;28;20437;-78
2021/07/26 03:27:54;;;;;;;3.60;2.53;;;;;;;;;;5034923;28;20392;-78
2021/07/26 03:30:20;;;;;;;3.77;2.10;;;;;;;;;;5036106;28;20451;-78
2021/07/26 03:32:46;;;;;;;4.20;2.30;;;;;;;;;;5035652;28;20413;-78
2021/07/26 03:35:13;;;;;;;6.83;2.90;;;;;;;;;;5036227;28;20439;-78
2021/07/26 03:37:39;;;;;;;4.43;2.70;;;;;;;;;;5034709;28;21012;-78
2021/07/26 03:40:06;;;;;;;2.73;2.53;;;;;;;;;;5035875;28;20444;-78
2021/07/26 03:42:39;;;;;;;2.90;2.60;;;;;;;;;;5034884;28;20384;-78
2021/07/26 03:45:06;;;;;;;2.90;2.60;;;;;;;;;;5035510;28;20431;-78
2021/07/26 03:47:32;;;;;;;4.03;2.70;;;;;;;;;;5034700;28;20421;-78
2021/07/26 03:49:58;;;;;;;3.33;2.43;;;;;;;;;;5035845;28;20413;-78
2021/07/26 03:52:24;;;;;;;2.50;2.20;;;;;;;;;;5034563;28;20424;-78
2021/07/26 03:54:50;;;;;;;4.37;2.80;;;;;;;;;;5035384;28;20800;-78
2021/07/26 03:57:16;;;;;;;3.27;2.60;;;;;;;;;;5034491;28;20491;-78
2021/07/26 03:59:42;;;;;;;5.03;3.03;;;;;;;;;;5035676;28;20895;-78
2021/07/26 04:02:08;;;;;;;3.17;2.60;;;;;;;;;;5035476;28;20460;-78
2021/07/26 04:04:34;;;;;;;3.20;2.40;;;;;;;;;;5035191;28;20402;-78
2021/07/26 04:07:04;;;;;;;3.33;2.90;;;;;;;;;;5034177;28;20383;-78
2021/07/26 04:09:36;;;;;;;3.40;2.70;;;;;;;;;;5034211;28;20466;-78
2021/07/26 04:12:16;;;;;;;4.40;2.90;;;;;;;;;;5034109;28;20387;-78
2021/07/26 04:14:42;;;;;;;3.60;3.03;;;;;;;;;;5034037;28;20479;-78
2021/07/26 04:17:08;;;;;;;3.30;3.00;;;;;;;;;;5035387;28;20394;-78
2021/07/26 04:19:34;;;;;;;3.10;2.80;;;;;;;;;;5035071;28;20465;-78
2021/07/26 04:22:00;;;;;;;3.73;2.73;;;;;;;;;;5035148;28;20873;-78
2021/07/26 04:24:26;;;;;;;2.77;2.43;;;;;;;;;;5034569;28;20537;-78
2021/07/26 04:26:55;;;;;;;3.00;2.70;;;;;;;;;;5035136;28;20409;-78
2021/07/26 04:29:21;;;;;;;2.83;2.60;;;;;;;;;;5017470;28;20425;-79
2021/07/26 04:31:48;;;;;;;3.17;2.60;;;;;;;;;;5035568;28;20384;-78
2021/07/26 04:34:14;;;;;;;3.77;2.90;;;;;;;;;;5033426;28;20911;-79
2021/07/26 04:36:40;;;;;;;3.00;2.50;;;;;;;;;;5034730;28;20467;-78
2021/07/26 04:39:09;;;;;;;2.67;2.43;;;;;;;;;;5033469;28;20423;-79
2021/07/26 04:41:35;;;;;;;4.90;2.97;;;;;;;;;;5034750;28;20975;-78
2021/07/26 04:44:02;;;;;;;3.20;2.90;;;;;;;;;;5033421;28;20388;-79
2021/07/26 04:46:28;;;;;;;3.53;3.23;;;;;;;;;;5034647;28;20416;-78
2021/07/26 04:48:54;;;;;;;4.33;2.47;;;;;;;;;;5034407;28;20745;-78
2021/07/26 04:51:20;;;;;;;2.97;2.77;;;;;;;;;;5034800;28;20413;-79
2021/07/26 04:53:46;;;;;;;5.63;2.90;;;;;;;;;;5033207;28;20423;-79
2021/07/26 04:56:11;;;;;;;3.53;2.83;;;;;;;;;;5034985;28;20487;-78
2021/07/26 04:58:37;;;;;;;6.67;2.60;;;;;;;;;;5033481;28;20424;-78
2021/07/26 05:01:03;;;;;;;3.30;3.00;;;;;;;;;;5039185;28;20889;-79
2021/07/26 05:03:30;;;;;;;3.77;2.83;;;;;;;;;;5035267;28;20388;-78
2021/07/26 05:05:56;;;;;;;6.33;3.17;;;;;;;;;;5034728;28;20396;-78
2021/07/26 05:08:22;;;;;;;5.87;3.27;;;;;;;;;;5034426;28;20417;-78
2021/07/26 05:10:48;;;;;;;2.83;2.63;;;;;;;;;;5034263;28;20467;-78
2021/07/26 05:13:15;;;;;;;2.93;2.73;;;;;;;;;;5016542;28;20418;-78
2021/07/26 05:15:41;;;;;;;3.33;3.03;;;;;;;;;;5032701;28;20467;-78
2021/07/26 05:18:07;;;;;;;3.93;3.00;;;;;;;;;;5032610;28;20415;-78
2021/07/26 05:20:33;;;;;;;3.30;3.00;;;;;;;;;;5034106;28;20477;-78
2021/07/26 05:22:59;;;;;;;3.50;2.73;;;;;;;;;;5032334;28;20531;-78
2021/07/26 05:25:25;;;;;;;3.50;3.20;;;;;;;;;;5016420;28;20441;-78
2021/07/26 05:27:51;;;;;;;3.73;3.33;;;;;;;;;;5033964;28;20786;-78
2021/07/26 05:30:18;;;;;;;3.03;2.33;;;;;;;;;;5032893;28;20399;-78
2021/07/26 05:32:44;;;;;;;6.23;3.20;;;;;;;;;;5032370;28;20406;-82
2021/07/26 05:35:10;;;;;;;3.63;3.33;;;;;;;;;;5033843;28;20771;-78
2021/07/26 05:37:36;;;;;;;3.43;2.80;;;;;;;;;;5034205;28;20440;-78
2021/07/26 05:40:03;;;;;;;5.13;2.90;;;;;;;;;;5032404;28;20413;-78
2021/07/26 05:42:29;;;;;;;4.50;2.87;;;;;;;;;;5034051;28;20425;-78
2021/07/26 05:44:56;;;;;;;4.43;2.90;;;;;;;;;;5033434;28;20424;-79
2021/07/26 05:47:22;;;;;;;5.10;3.30;;;;;;;;;;5033704;28;20859;-78
2021/07/26 05:49:48;;;;;;;5.57;2.83;;;;;;;;;;5033974;28;20496;-78
2021/07/26 05:52:14;;;;;;;3.20;2.90;;;;;;;;;;5033853;28;20427;-78
2021/07/26 05:54:40;;;;;;;5.03;2.93;;;;;;;;;;5032207;28;20775;-78
2021/07/26 05:57:14;;;;;;;3.83;2.80;;;;;;;;;;5033700;28;20508;-79
2021/07/26 05:59:40;;;;;;;2.90;2.70;;;;;;;;;;5033598;28;20471;-78
2021/07/26 06:02:06;;;;;;;2.60;2.40;;;;;;;;;;5032451;28;20882;-79
2021/07/26 06:04:32;;;;;;;4.00;3.20;;;;;;;;;;5033122;28;20508;-79
2021/07/26 06:06:58;;;;;;;3.40;2.90;;;;;;;;;;5016135;28;20496;-78
2021/07/26 06:09:26;;;;;;;5.60;3.00;;;;;;;;;;5015848;28;20417;-79
2021/07/26 06:11:52;;;;;;;5.70;3.67;;;;;;;;;;5033471;28;20391;-78
2021/07/26 06:14:18;;;;;;;4.17;2.80;;;;;;;;;;5033066;28;20432;-78
2021/07/26 06:16:45;;;;;;;3.57;2.63;;;;;;;;;;5033388;28;20387;-78
2021/07/26 06:19:12;;;;;;;6.13;3.43;;;;;;;;;;5033006;28;20420;-80
2021/07/26 06:21:42;;;;;;;7.63;3.23;;;;;;;;;;5033257;28;20431;-78
2021/07/26 06:24:08;;;;;;;3.30;3.00;;;;;;;;;;5032804;28;20405;-78
2021/07/26 06:26:34;;;;;;;3.53;2.73;;;;;;;;;;5033017;28;20417;-78
2021/07/26 06:29:00;;;;;;;3.53;3.20;;;;;;;;;;5033203;28;20396;-78
2021/07/26 06:31:26;;;;;;;6.90;3.20;;;;;;;;;;5035361;28;20399;-78
2021/07/26 06:33:52;;;;;;;4.03;2.50;;;;;;;;;;5037090;28;20405;-78
2021/07/26 06:36:18;;;;;;;3.00;2.70;;;;;;;;;;5037434;28;20522;-78
2021/07/26 06:38:44;;;;;;;3.27;2.87;;;;;;;;;;5037440;28;20399;-78
2021/07/26 06:41:10;;;;;;;5.17;3.10;;;;;;;;;;5037225;28;20431;-78
2021/07/26 06:43:36;;;;;;;4.03;3.13;;;;;;;;;;5036877;28;20416;-78
2021/07/26 06:46:06;;;;;;;3.50;3.07;;;;;;;;;;5037083;28;20851;-78
2021/07/26 06:48:32;;;;;;;3.57;2.77;;;;;;;;;;5037100;28;20417;-78
2021/07/26 06:51:01;;;;;;;4.83;3.43;;;;;;;;;;5037055;28;20470;-78
2021/07/26 06:53:28;;;;;;;6.30;3.40;;;;;;;;;;5036685;28;20416;-78
2021/07/26 06:55:54;;;;;;;4.30;3.03;;;;;;;;;;5036858;28;20448;-79
2021/07/26 06:58:20;;;;;;;4.73;2.87;;;;;;;;;;5036696;28;20391;-78
2021/07/26 07:00:46;;;;;;;3.20;2.90;;;;;;;;;;5036849;28;20427;-78
2021/07/26 07:03:12;;;;;;;3.53;3.20;;;;;;;;;;5036562;28;20383;-78
2021/07/26 07:05:38;;;;;;;3.20;2.63;;;;;;;;;;5606862;22;20462;-79
2021/07/26 07:08:04;;;;;;;4.30;3.33;;;;;;;;;;5056712;28;20404;-78
2021/07/26 07:10:30;;;;;;;3.70;2.83;;;;;;;;;;5056622;28;20754;-79
2021/07/26 07:13:00;;;;;;;3.30;3.00;;;;;;;;;;5056537;28;20408;-78
2021/07/26 07:15:27;;;;;;;3.23;2.87;;;;;;;;;;5056481;28;20440;-78
2021/07/26 07:17:53;;;;;;;2.70;2.50;;;;;;;;;;5055209;28;20507;-78
2021/07/26 07:20:19;;;;;;;3.20;2.90;;;;;;;;;;5056473;28;20477;-78
2021/07/26 07:22:45;;;;;;;4.37;3.27;;;;;;;;;;5056184;28;20416;-80
2021/07/26 07:25:12;;;;;;;3.30;3.00;;;;;;;;;;5056369;28;20431;-80
2021/07/26 07:27:38;;;;;;;3.50;2.57;;;;;;;;;;5056442;28;20412;-80
2021/07/26 07:30:04;;;;;;;4.20;3.00;;;;;;;;;;5056322;28;20408;-79
2021/07/26 07:32:32;;;;;;;3.47;3.03;;;;;;;;;;5052454;28;20444;-78
2021/07/26 07:34:58;;;;;;;2.63;2.43;;;;;;;;;;5049400;28;21309;-77
2021/07/26 07:37:25;;;;;;;2.47;2.23;;;;;;;;;;5052641;28;20546;-78
2021/07/26 07:39:51;;;;;;;2.50;2.30;;;;;;;;;;5049263;28;20443;-78
2021/07/26 07:42:17;;;;;;;2.87;2.53;;;;;;;;;;5052003;28;20451;-78
2021/07/26 07:44:43;;;;;;;7.40;3.20;;;;;;;;;;5054005;28;20969;-79
2021/07/26 07:47:13;;;;;;;4.53;2.80;;;;;;;;;;5035800;28;20440;-77
2021/07/26 07:49:39;;;;;;;3.40;3.10;;;;;;;;;;5042160;28;20927;-79
2021/07/26 07:52:05;;;;;;;3.47;2.50;;;;;;;;;;5054773;28;20431;-78
2021/07/26 07:54:31;;;;;;;3.13;2.50;;;;;;;;;;5054844;28;20522;-79
2021/07/26 07:56:59;;;;;;;3.10;2.07;;;;;;;;;;5053918;28;20447;-78
2021/07/26 07:59:25;;;;;;;3.13;2.67;;;;;;;;;;5059289;28;20416;-78
2021/07/26 08:01:51;;;;;;;4.20;2.73;;;;;;;;;;5055150;28;20529;-78
2021/07/26 08:04:17;;;;;;;2.63;2.43;;;;;;;;;;5055309;28;20439;-78
2021/07/26 08:06:44;;;;;;;2.43;2.13;;;;;;;;;;5051188;28;20451;-77
2021/07/26 08:09:10;;;;;;;3.50;2.30;;;;;;;;;;5046897;28;20409;-76
2021/07/26 08:11:36;;;;;;;2.73;2.13;;;;;;;;;;5054426;28;20416;-77
2021/07/26 08:14:03;;;;;;;3.40;2.20;;;;;;;;;;5059221;28;20485;-76
2021/07/26 08:16:29;;;;;;;2.87;2.33;;;;;;;;;;5051454;28;20455;-76
2021/07/26 08:18:57;;;;;;;3.60;2.80;;;;;;;;;;5053821;28;20449;-77
2021/07/26 08:21:23;;;;;;;3.73;1.70;;;;;;;;;;5047492;28;20513;-77
2021/07/26 08:23:49;;;;;;;4.30;1.90;;;;;;;;;;5042717;28;20940;-77
2021/07/26 08:26:15;;;;;;;3.03;2.10;;;;;;;;;;5052499;28;20511;-76
2021/07/26 08:28:41;;;;;;;5.10;2.43;;;;;;;;;;5047628;28;20428;-76
2021/07/26 08:31:07;;;;;;;1.97;1.30;;;;;;;;;;5046415;28;20452;-76
2021/07/26 08:33:33;;;;;;;2.60;1.63;;;;;;;;;;5043664;28;20444;-77
2021/07/26 08:35:59;;;;;;;2.90;1.63;;;;;;;;;;5047738;28;20493;-76
2021/07/26 08:38:25;;;;;;;3.53;1.87;;;;;;;;;;5049331;28;20916;-77
2021/07/26 08:40:51;;;;;;;5.90;1.87;;;;;;;;;;5047116;28;20482;-76
2021/07/26 08:43:17;;;;;;;4.43;1.77;;;;;;;;;;5047555;28;20443;-76
2021/07/26 08:45:44;;;;;;;2.03;1.80;;;;;;;;;;5051328;28;20952;-76
2021/07/26 08:48:11;;;;;;;2.90;1.80;;;;;;;;;;5049119;28;20416;-76
2021/07/26 08:50:38;;;;;;;3.03;2.40;;;;;;;;;;5046338;28;20408;-76
2021/07/26 08:53:05;;;;;;;2.47;2.00;;;;;;;;;;5046067;28;20439;-76
2021/07/26 08:55:35;;;;;;;5.10;2.13;;;;;;;;;;5049311;28;20786;-76
2021/07/26 08:58:01;;;;;;;2.47;1.90;;;;;;;;;;5038177;28;20433;-77
2021/07/26 09:00:27;;;;;;;7.37;2.20;;;;;;;;;;5047053;28;20447;-77
2021/07/26 09:02:54;;;;;;;2.77;2.30;;;;;;;;;;5048631;28;20441;-75
2021/07/26 09:05:20;;;;;;;5.13;2.40;;;;;;;;;;5051091;28;20440;-76
2021/07/26 09:07:48;;;;;;;2.47;2.20;;;;;;;;;;5046341;28;20462;-77
2021/07/26 09:10:21;;;;;;;5.23;2.67;;;;;;;;;;5052117;28;20444;-76
2021/07/26 09:12:49;;;;;;;2.13;1.80;;;;;;;;;;5049423;28;20430;-75
2021/07/26 09:15:17;;;;;;;3.37;2.20;;;;;;;;;;5046598;28;20455;-76
2021/07/26 09:17:44;;;;;;;2.63;2.10;;;;;;;;;;5049968;28;20531;-76
2021/07/26 09:20:11;;;;;;;4.57;2.10;;;;;;;;;;5051656;28;20428;-76
2021/07/26 09:22:38;;;;;;;2.93;2.23;;;;;;;;;;5047853;28;20473;-77
2021/07/26 09:25:10;;;;;;;3.20;2.00;;;;;;;;;;5047887;28;20964;-76
2021/07/26 09:27:36;;;;;;;3.77;2.20;;;;;;;;;;5043938;28;20440;-75
2021/07/26 09:30:14;;;;;;;2.63;1.90;;;;;;;;;;5047537;28;20433;-75
2021/07/26 09:32:40;;;;;;;2.70;1.70;;;;;;;;;;5046754;28;20794;-75
2021/07/26 09:35:09;;;;;;;2.13;1.90;;;;;;;;;;5045704;28;20799;-75
2021/07/26 09:37:37;;;;;;;2.10;1.90;;;;;;;;;;5046071;28;20511;-77
2021/07/26 09:40:22;;;;;;;2.07;1.50;;;;;;;;;;5044787;28;20770;-75
2021/07/26 09:42:49;;;;;;;3.50;2.20;;;;;;;;;;5045225;28;20436;-75
2021/07/26 09:45:20;;;;;;;2.20;1.70;;;;;;;;;;5042281;28;20431;-75
2021/07/26 09:48:03;;;;;;;1.83;1.57;;;;;;;;;;5050384;28;20423;-76
2021/07/26 09:50:33;;;;;;;1.90;1.73;;;;;;;;;;5042916;28;20420;-75
2021/07/26 09:53:06;;;;;;;2.10;1.50;;;;;;;;;;5043964;28;20424;-76
2021/07/26 09:55:32;;;;;;;1.50;1.37;;;;;;;;;;5050021;28;20436;-76
2021/07/26 09:58:02;;;;;;;2.30;1.50;;;;;;;;;;5043249;28;21430;-75
2021/07/26 10:00:28;;;;;;;2.00;1.80;;;;;;;;;;5047785;28;20412;-76
2021/07/26 10:02:55;;;;;;;1.97;1.70;;;;;;;;;;5045845;28;20446;-78
2021/07/26 10:05:23;;;;;;;1.93;1.47;;;;;;;;;;5011158;28;1102732;-76
2021/07/26 10:07:49;;;;;;;1.77;1.67;;;;;;;;;;5046085;28;20424;-76
2021/07/26 10:10:15;;;;;;;1.87;1.70;;;;;;;;;;5046400;28;20431;-76
2021/07/26 10:12:41;;;;;;;2.03;1.43;;;;;;;;;;5046360;28;20877;-75
2021/07/26 10:15:07;;;;;;;2.03;1.93;;;;;;;;;;5049844;28;20542;-75
2021/07/26 10:17:34;;;;;;;4.20;1.90;;;;;;;;;;5047891;28;20432;-76
2021/07/26 10:20:00;;;;;;;1.50;1.40;;;;;;;;;;5050977;28;20819;-75
2021/07/26 10:22:28;;;;;;;2.37;1.73;;;;;;;;;;5048243;28;20463;-75
2021/07/26 10:25:00;;;;;;;3.73;1.80;;;;;;;;;;5051077;28;20440;-75
2021/07/26 10:27:30;;;;;;;3.63;1.57;;;;;;;;;;5048474;28;20404;-75
2021/07/26 10:29:57;;;;;;;2.57;1.93;;;;;;;;;;5044367;28;20433;-76
2021/07/26 10:32:29;;;;;;;1.90;1.70;;;;;;;;;;5044609;28;20435;-75
2021/07/26 10:34:56;;;;;;;2.13;1.53;;;;;;;;;;5041328;28;20459;-75
2021/07/26 10:37:33;;;;;;;3.30;1.67;;;;;;;;;;5046349;28;20819;-75
2021/07/26 10:40:19;;;;;;;2.47;1.97;;;;;;;;;;5038450;28;20439;-75
2021/07/26 10:42:45;;;;;;;2.17;2.00;;;;;;;;;;5040697;28;20449;-75
2021/07/26 10:45:11;;;;;;;2.60;2.40;;;;;;;;;;5037051;28;20463;-76
2021/07/26 10:47:37;;;;;;;2.20;1.93;;;;;;;;;;5043909;28;20440;-74
2021/07/26 10:50:10;;;;;;;5.97;2.40;;;;;;;;;;5041629;28;20942;-75
2021/07/26 10:52:36;;;;;;;3.40;2.40;;;;;;;;;;5040622;28;20448;-75
2021/07/26 10:55:04;;;;;;;2.97;2.50;;;;;;;;;;5041230;28;20846;-75
2021/07/26 10:57:39;;;;;;;3.63;2.67;;;;;;;;;;5038455;28;20447;-75
2021/07/26 11:00:08;;;;;;;3.33;2.50;;;;;;;;;;5042174;28;20447;-75
2021/07/26 11:02:35;;;;;;;3.00;2.43;;;;;;;;;;5047568;28;20491;-75
2021/07/26 11:05:20;;;;;;;3.40;2.80;;;;;;;;;;5049292;28;20493;-74
2021/07/26 11:07:47;;;;;;;2.27;2.00;;;;;;;;;;5046448;28;20439;-74
2021/07/26 11:10:32;;;;;;;4.03;2.13;;;;;;;;;;5046904;28;20782;-76
2021/07/26 11:12:58;;;;;;;3.17;2.40;;;;;;;;;;5048374;28;20771;-76
2021/07/26 11:15:25;;;;;;;3.03;1.90;;;;;;;;;;5055951;28;20949;-76
2021/07/26 11:18:31;;;;;;;2.73;1.80;;;;;;;;;;5055654;28;20502;-75
2021/07/26 11:20:57;;;;;;;2.83;2.63;;;;;;;;;;5020867;28;20475;-76
2021/07/26 11:23:42;;;;;;;3.20;2.13;;;;;;;;;;5053141;28;20436;-75
2021/07/26 11:26:17;;;;;;;3.10;2.90;;;;;;;;;;5047438;28;20512;-75
2021/07/26 11:28:43;;;;;;;5.47;2.50;;;;;;;;;;5053601;28;20518;-75
2021/07/26 11:31:10;;;;;;;3.23;2.20;;;;;;;;;;5049603;28;20424;-76
2021/07/26 11:33:36;;;;;;;3.73;1.97;;;;;;;;;;5052366;28;20435;-75
2021/07/26 11:36:07;;;;;;;1.90;1.80;;;;;;;;;;5050708;28;20459;-76
2021/07/26 11:38:33;;;;;;;1.60;1.50;;;;;;;;;;5053396;28;20872;-77
2021/07/26 11:40:59;;;;;;;1.90;1.80;;;;;;;;;;5054318;28;20467;-77
2021/07/26 11:43:35;;;;;;;1.67;1.57;;;;;;;;;;5051734;28;20960;-76
2021/07/26 11:46:01;;;;;;;2.50;1.73;;;;;;;;;;5048816;28;20522;-75
2021/07/26 11:48:28;;;;;;;1.80;1.60;;;;;;;;;;5052655;28;20421;-76
2021/07/26 11:50:54;;;;;;;1.80;1.63;;;;;;;;;;5048762;28;20424;-76
2021/07/26 11:53:27;;;;;;;1.63;1.47;;;;;;;;;;5048955;28;20469;-75
2021/07/26 11:55:53;;;;;;;2.00;1.80;;;;;;;;;;5051447;28;20439;-76
2021/07/26 11:58:25;;;;;;;2.33;1.93;;;;;;;;;;5048443;28;20427;-75
2021/07/26 12:00:51;;;;;;;2.00;1.90;;;;;;;;;;5048563;28;20470;-76
2021/07/26 12:03:18;;;;;;;1.70;1.60;;;;;;;;;;5050200;28;20777;-75
2021/07/26 12:05:44;;;;;;;2.60;2.23;;;;;;;;;;5052340;28;20471;-76
2021/07/26 12:08:13;;;;;;;4.13;2.90;;;;;;;;;;5051752;28;20400;-74
2021/07/26 12:10:39;;;;;;;3.17;2.30;;;;;;;;;;5051321;28;20407;-75
2021/07/26 12:13:16;;;;;;;4.20;2.80;;;;;;;;;;5049908;28;20452;-75
2021/07/26 12:15:45;;;;;;;5.47;2.50;;;;;;;;;;5048937;28;20448;-76
2021/07/26 12:18:18;;;;;;;7.40;2.77;;;;;;;;;;5052823;28;20438;-75
2021/07/26 12:20:53;;;;;;;6.93;2.63;;;;;;;;;;5051136;28;20466;-77
2021/07/26 12:23:20;;;;;;;9.13;2.80;;;;;;;;;;5047000;28;20436;-75
2021/07/26 12:25:49;;;;;;;3.90;2.20;;;;;;;;;;5050707;28;20514;-77
2021/07/26 12:28:19;;;;;;;3.43;2.47;;;;;;;;;;5047534;28;20431;-75
2021/07/26 12:30:47;;;;;;;3.50;2.73;;;;;;;;;;5048532;28;20417;-75
2021/07/26 12:33:26;;;;;;;2.13;1.60;;;;;;;;;;5050946;28;20490;-76
2021/07/26 12:36:09;;;;;;;4.50;2.00;;;;;;;;;;5049972;28;20435;-76
2021/07/26 12:38:35;;;;;;;1.43;1.33;;;;;;;;;;5051623;28;20412;-78
2021/07/26 12:41:05;;;;;;;2.00;1.90;;;;;;;;;;5051112;28;20798;-76
2021/07/26 12:43:31;;;;;;;2.60;1.67;;;;;;;;;;5045505;28;20756;-78
2021/07/26 12:46:07;;;;;;;2.97;2.20;;;;;;;;;;5047858;28;20878;-75
2021/07/26 12:48:34;;;;;;;1.87;1.57;;;;;;;;;;5050533;28;20435;-76
2021/07/26 12:51:00;;;;;;;1.73;1.63;;;;;;;;;;5052186;28;20419;-76
2021/07/26 12:53:27;;;;;;;2.10;1.80;;;;;;;;;;5037691;28;20413;-77
2021/07/26 12:55:54;;;;;;;2.03;1.93;;;;;;;;;;5033548;28;20968;-77
2021/07/26 12:58:30;;;;;;;3.07;2.10;;;;;;;;;;5034245;28;20478;-76
2021/07/26 13:00:58;;;;;;;5.30;2.00;;;;;;;;;;5034437;28;20469;-76
2021/07/26 13:03:24;;;;;;;2.23;1.80;;;;;;;;;;5033978;28;20409;-76
2021/07/26 13:05:51;;;;;;;1.50;1.40;;;;;;;;;;5034184;28;20445;-75
2021/07/26 13:08:18;;;;;;;5.40;1.70;;;;;;;;;;5049617;28;20929;-78
2021/07/26 13:10:46;;;;;;;3.83;2.10;;;;;;;;;;5034356;28;20756;-74
2021/07/26 13:13:13;;;;;;;2.17;1.97;;;;;;;;;;5034087;28;20409;-77
2021/07/26 13:15:40;;;;;;;2.17;2.00;;;;;;;;;;5034122;28;20851;-76
2021/07/26 13:18:07;;;;;;;2.60;2.20;;;;;;;;;;5034023;28;20404;-78
2021/07/26 13:20:34;;;;;;;1.50;1.40;;;;;;;;;;5034000;28;20409;-75
2021/07/26 13:23:00;;;;;;;2.33;2.13;;;;;;;;;;5033817;28;20753;-77
2021/07/26 13:25:27;;;;;;;5.60;2.80;;;;;;;;;;5033926;28;20987;-75
2021/07/26 13:27:53;;;;;;;11.63;2.87;;;;;;;;;;5034019;28;20437;-75
2021/07/26 13:30:19;;;;;;;11.60;3.23;;;;;;;;;;5033888;28;20487;-76
2021/07/26 13:32:45;;;;;;;5.93;2.90;;;;;;;;;;5033553;28;20413;-78
2021/07/26 13:35:12;;;;;;;8.90;3.30;;;;;;;;;;5049134;28;20480;-78
2021/07/26 13:37:38;;;;;;;5.17;2.93;;;;;;;;;;5033822;28;20417;-76
2021/07/26 13:40:04;;;;;;;4.03;2.50;;;;;;;;;;5033541;28;20945;-75
2021/07/26 13:42:33;;;;;;;3.80;2.63;;;;;;;;;;5033967;28;20471;-75
2021/07/26 13:45:00;;;;;;;4.57;2.37;;;;;;;;;;5033484;28;20516;-74
2021/07/26 13:47:26;;;;;;;4.80;2.40;;;;;;;;;;5033882;28;20412;-76
2021/07/26 13:49:53;;;;;;;7.57;2.50;;;;;;;;;;5033630;28;20409;-76
2021/07/26 13:52:18;;;;;;;2.90;2.20;;;;;;;;;;5033781;28;20416;-76
2021/07/26 13:54:44;;;;;;;2.10;1.63;;;;;;;;;;5033159;28;20429;-74
2021/07/26 13:57:10;;;;;;;2.13;1.80;;;;;;;;;;5033746;28;20441;-77
2021/07/26 13:59:37;;;;;;;5.13;2.03;;;;;;;;;;5033643;28;20409;-75
2021/07/26 14:02:03;;;;;;;2.30;1.93;;;;;;;;;;5033545;28;20456;-76
2021/07/26 14:04:30;;;;;;;6.47;2.17;;;;;;;;;;5033042;28;20428;-76
2021/07/26 14:06:56;;;;;;;2.63;2.43;;;;;;;;;;5033432;28;20436;-77
2021/07/26 14:09:22;;;;;;;2.93;1.70;;;;;;;;;;5033403;28;20401;-75
2021/07/26 14:11:50;;;;;;;2.83;2.27;;;;;;;;;;5033404;28;20413;-76
2021/07/26 14:14:16;;;;;;;4.50;2.27;;;;;;;;;;5031815;28;20413;-75
2021/07/26 14:16:41;;;;;;;3.60;1.93;;;;;;;;;;5033204;28;20451;-76
2021/07/26 14:19:08;;;;;;;4.50;2.20;;;;;;;;;;5033236;28;20447;-75
2021/07/26 14:21:34;;;;;;;5.47;2.90;;;;;;;;;;5033132;28;20472;-76
2021/07/26 14:24:00;;;;;;;2.60;2.40;;;;;;;;;;5032923;28;20898;-77
2021/07/26 14:26:26;;;;;;;8.10;2.23;;;;;;;;;;5033250;28;20440;-75
2021/07/26 14:28:52;;;;;;;3.40;2.40;;;;;;;;;;5031605;28;20494;-75
2021/07/26 14:31:18;;;;;;;5.10;2.50;;;;;;;;;;5033095;28;20412;-77
2021/07/26 14:33:44;;;;;;;4.40;2.43;;;;;;;;;;5032954;28;20507;-75
2021/07/26 14:36:10;;;;;;;4.30;2.53;;;;;;;;;;5048382;28;20489;-76
2021/07/26 14:38:36;;;;;;;5.23;2.53;;;;;;;;;;5033081;28;20417;-75
2021/07/26 14:41:02;;;;;;;4.50;2.90;;;;;;;;;;5032931;28;20563;-77
2021/07/26 14:43:28;;;;;;;4.50;3.17;;;;;;;;;;5032480;28;20433;-77
2021/07/26 14:45:54;;;;;;;2.93;2.50;;;;;;;;;;5032754;28;20507;-77